aviador You're here:

SBGR Decoded Metar

SAO PAULO in BRAZIL
Report Time2017-12-11 22:00:00
UTC Time2017-12-11 22:59:26
Flight Rules mvfr MVFR
Wind180° at 08 kt
W.Decomp.*RWY 27: 2.7 kt HW 7.5 kt LCW
W.Rank180° ranks 13
Current wind is above 180° avg. (5.1)
Visibility9999 m
Phenomena:N/A
Clouds:Broken 013 Hf
Expected CloudBase > 800 ft AGL from Temp-Dew spread
Ceiling1,300 ft
Temp21°C (ISA +11)
Dew Point19°C (88% RH)
QNH1013 hPa
Density Alt4,029 ft
Elevation2,461 ft
Report Wrong Elevation
Raw Report
METAR SBGR 112200Z 18008KT 9999 BKN013 21/19 Q1013=

Extra information for SBGR:More info

Metar Taf Metar & Taf Last 4 Metars F.Rules Stats Wind Profile Meteogram Temp Stats Airport Information Weather charts Add Link Nearby VenuesMetar ALERT Operation Metar Decoded Social comments